Time;durP1;ratioP1;P1;durP2;ratioP2;P2;SDS_P1;SDS_P2;PMS_P1;PMS_P2;Temp;Humidity;BMP_temperature;BMP_pressure;BME280_temperature;BME280_humidity;BME280_pressure;Samples;Min_cycle;Max_cycle;Signal;HPM_P1;HPM_P2
2022/01/05 00:02:29;;;;;;;2.13;1.80;;;;;;;5.16;100.00;98698.47;5015283;28;20251;-53
2022/01/05 00:04:55;;;;;;;1.60;1.20;;;;;;;5.16;100.00;98685.66;5019752;28;21992;-52
2022/01/05 00:07:20;;;;;;;1.33;1.10;;;;;;;5.09;100.00;98694.28;5020140;28;20231;-52
2022/01/05 00:09:45;;;;;;;2.70;1.40;;;;;;;5.10;100.00;98678.88;5020559;28;20183;-52
2022/01/05 00:12:11;;;;;;;2.17;1.30;;;;;;;5.11;100.00;98680.56;5020565;28;20184;-53
2022/01/05 00:14:36;;;;;;;1.93;1.40;;;;;;;5.13;100.00;98683.97;5019976;28;20212;-52
2022/01/05 00:17:02;;;;;;;3.43;1.60;;;;;;;5.10;100.00;98676.31;5017857;28;20401;-52
2022/01/05 00:19:27;;;;;;;3.00;1.30;;;;;;;5.13;100.00;98689.09;5028868;28;20289;-53
2022/01/05 00:21:53;;;;;;;5.13;1.37;;;;;;;5.19;100.00;98685.63;5031513;28;20184;-53
2022/01/05 00:24:18;;;;;;;2.80;1.50;;;;;;;5.20;100.00;98689.88;5030327;28;20200;-52
2022/01/05 00:26:43;;;;;;;3.57;1.83;;;;;;;5.21;100.00;98677.91;5022082;28;20198;-53
2022/01/05 00:29:09;;;;;;;2.47;1.70;;;;;;;5.29;100.00;98681.22;5015875;28;20624;-53
2022/01/05 00:31:34;;;;;;;2.60;1.60;;;;;;;5.31;100.00;98689.75;5012811;28;20877;-53
2022/01/05 00:33:59;;;;;;;3.67;1.60;;;;;;;5.34;100.00;98671.75;5018765;28;20190;-53
2022/01/05 00:36:25;;;;;;;2.30;1.40;;;;;;;5.31;100.00;98664.09;5024325;28;20218;-53
2022/01/05 00:38:50;;;;;;;2.87;1.57;;;;;;;5.27;100.00;98658.16;5016884;28;20211;-52
2022/01/05 00:41:15;;;;;;;1.80;1.43;;;;;;;5.29;100.00;98663.25;5017434;28;20190;-53
2022/01/05 00:43:41;;;;;;;1.60;1.20;;;;;;;5.33;100.00;98654.66;5013691;28;20196;-53
2022/01/05 00:46:07;;;;;;;2.73;1.70;;;;;;;5.40;100.00;98656.25;5018521;28;20270;-53
2022/01/05 00:48:34;;;;;;;2.87;1.53;;;;;;;5.39;100.00;98656.28;5018664;28;20212;-53
2022/01/05 00:51:02;;;;;;;2.20;1.40;;;;;;;5.37;100.00;98665.72;5020574;28;20186;-53
2022/01/05 00:53:28;;;;;;;2.27;1.37;;;;;;;5.37;100.00;98673.41;5016286;28;20234;-53
2022/01/05 00:55:54;;;;;;;3.30;1.50;;;;;;;5.37;100.00;98687.06;5014420;28;20264;-53
2022/01/05 00:58:19;;;;;;;3.20;2.03;;;;;;;5.37;100.00;98696.50;5014314;28;20836;-53
2022/01/05 01:00:44;;;;;;;2.50;1.80;;;;;;;5.45;100.00;98690.41;5015352;28;20185;-53
2022/01/05 01:03:10;;;;;;;4.57;2.73;;;;;;;5.49;100.00;98686.94;5019808;28;20506;-52
2022/01/05 01:05:35;;;;;;;3.03;1.90;;;;;;;5.51;100.00;98681.75;5018981;28;20238;-53
2022/01/05 01:08:01;;;;;;;2.37;1.83;;;;;;;5.39;100.00;98707.59;5021150;28;20308;-53
2022/01/05 01:10:26;;;;;;;1.77;1.50;;;;;;;5.37;100.00;98702.47;5020761;28;20199;-53
2022/01/05 01:12:51;;;;;;;2.30;1.60;;;;;;;5.40;100.00;98710.13;5022084;28;20188;-53
2022/01/05 01:15:17;;;;;;;3.00;1.50;;;;;;;5.43;100.00;98728.06;5021154;28;20201;-53
2022/01/05 01:17:42;;;;;;;1.70;1.30;;;;;;;5.44;100.00;98736.63;5016304;28;20277;-52
2022/01/05 01:20:08;;;;;;;2.87;1.47;;;;;;;5.46;100.00;98739.97;5020206;28;20184;-52
2022/01/05 01:22:35;;;;;;;1.40;1.10;;;;;;;5.48;100.00;98731.41;5017460;28;20196;-53
2022/01/05 01:25:01;;;;;;;1.77;1.20;;;;;;;5.52;100.00;98732.22;5017969;28;20650;-53
2022/01/05 01:27:27;;;;;;;3.60;1.70;;;;;;;5.56;100.00;98725.31;5013164;28;20230;-52
2022/01/05 01:29:52;;;;;;;2.50;1.57;;;;;;;5.55;100.00;98734.75;5015861;28;20674;-52
2022/01/05 01:32:17;;;;;;;2.53;1.43;;;;;;;5.52;100.00;98727.09;5015367;28;20194;-53
2022/01/05 01:34:43;;;;;;;2.90;1.57;;;;;;;5.54;100.00;98724.47;5008454;28;20293;-53
2022/01/05 01:37:08;;;;;;;3.40;1.63;;;;;;;5.53;100.00;98722.78;5015191;28;20219;-52
2022/01/05 01:39:33;;;;;;;2.73;1.97;;;;;;;5.50;100.00;98728.81;5024475;28;20283;-53
2022/01/05 01:41:59;;;;;;;4.17;2.43;;;;;;;5.48;100.00;98736.56;5018527;28;20308;-52
2022/01/05 01:44:24;;;;;;;5.77;3.47;;;;;;;5.48;100.00;98733.97;5016275;28;20554;-53
2022/01/05 01:46:50;;;;;;;10.97;5.63;;;;;;;5.60;100.00;98738.09;5016120;28;20648;-53
2022/01/05 01:49:15;;;;;;;7.00;4.27;;;;;;;5.42;100.00;98744.31;5022278;28;20584;-53
2022/01/05 01:51:41;;;;;;;5.43;3.23;;;;;;;5.37;100.00;98748.66;5013531;28;20192;-52
2022/01/05 01:54:07;;;;;;;7.00;3.40;;;;;;;5.37;100.00;98743.50;5015718;28;20197;-52
2022/01/05 01:56:34;;;;;;;4.30;2.60;;;;;;;5.38;100.00;98758.03;5021967;28;20678;-52
2022/01/05 01:59:04;;;;;;;5.33;2.97;;;;;;;5.41;100.00;98755.44;5022607;28;20222;-52
2022/01/05 02:01:29;;;;;;;5.27;3.17;;;;;;;5.45;100.00;98771.63;5019202;28;20622;-52
2022/01/05 02:03:54;;;;;;;5.80;3.50;;;;;;;5.43;100.00;98763.97;5023829;28;20193;-52
2022/01/05 02:06:20;;;;;;;5.97;3.17;;;;;;;5.34;100.00;98757.25;5018320;28;20571;-52
2022/01/05 02:08:45;;;;;;;8.77;3.80;;;;;;;5.33;100.00;98757.28;5030513;28;20254;-52
2022/01/05 02:11:13;;;;;;;6.33;4.23;;;;;;;5.39;100.00;98764.88;5023823;28;20260;-52
2022/01/05 02:13:39;;;;;;;9.77;4.80;;;;;;;5.32;100.00;98740.19;5025206;28;20189;-52
2022/01/05 02:16:05;;;;;;;10.67;5.40;;;;;;;5.30;100.00;98741.91;5017686;28;20218;-52
2022/01/05 02:21:05;;;;;;;7.83;4.60;;;;;;;5.29;100.00;98741.06;5020743;28;20188;-52
2022/01/05 02:23:32;;;;;;;7.90;4.73;;;;;;;5.20;100.00;98725.78;5015291;28;20471;-52
2022/01/05 02:25:57;;;;;;;9.43;4.87;;;;;;;5.16;100.00;98724.97;5012040;28;20188;-52
2022/01/05 02:28:23;;;;;;;7.53;4.73;;;;;;;5.17;100.00;98736.06;5014433;28;20299;-52
2022/01/05 02:30:52;;;;;;;7.83;4.80;;;;;;;5.18;100.00;98737.78;5028512;28;20427;-52
2022/01/05 02:33:18;;;;;;;8.60;4.87;;;;;;;5.18;100.00;98736.06;5019025;28;20180;-52
2022/01/05 02:35:43;;;;;;;7.30;5.00;;;;;;;5.19;100.00;98739.47;5017742;28;20205;-51
2022/01/05 02:38:08;;;;;;;7.20;4.97;;;;;;;5.17;100.00;98736.06;5025743;28;20220;-52
2022/01/05 02:40:34;;;;;;;7.97;4.93;;;;;;;5.18;100.00;98748.03;5021312;28;20193;-52
2022/01/05 02:42:59;;;;;;;8.23;5.17;;;;;;;5.22;100.00;98747.13;5017076;28;20198;-52
2022/01/05 02:45:25;;;;;;;8.53;4.80;;;;;;;5.26;100.00;98760.75;5016066;28;20296;-52
2022/01/05 02:47:50;;;;;;;7.30;3.97;;;;;;;5.28;100.00;98761.59;5019702;28;20213;-52
2022/01/05 02:50:16;;;;;;;7.13;4.10;;;;;;;5.23;100.00;98758.22;5016200;28;20559;-52
2022/01/05 02:52:42;;;;;;;6.57;4.00;;;;;;;5.24;100.00;98754.78;5021382;28;20198;-52
2022/01/05 02:55:08;;;;;;;6.07;3.60;;;;;;;5.23;100.00;98763.34;5021551;28;20204;-52
2022/01/05 02:57:34;;;;;;;7.27;4.10;;;;;;;5.19;100.00;98775.38;5020585;28;20570;-52
2022/01/05 03:00:00;;;;;;;7.03;4.20;;;;;;;5.18;100.00;98784.81;5018579;28;20191;-52
2022/01/05 03:02:25;;;;;;;6.07;3.93;;;;;;;5.10;100.00;98785.75;5013649;28;20259;-52
2022/01/05 03:04:50;;;;;;;6.47;3.20;;;;;;;5.10;100.00;98786.59;5024198;28;20578;-52
2022/01/05 03:07:16;;;;;;;5.27;3.33;;;;;;;5.18;100.00;98783.94;5024119;28;20692;-52
2022/01/05 03:09:42;;;;;;;5.47;3.27;;;;;;;5.24;100.00;98765.91;5016161;28;20233;-52
2022/01/05 03:12:08;;;;;;;7.93;3.80;;;;;;;5.22;100.00;98777.06;5016279;28;20643;-51
2022/01/05 03:14:34;;;;;;;5.80;3.07;;;;;;;5.24;100.00;98775.31;5027121;28;20218;-51
2022/01/05 03:16:59;;;;;;;6.00;3.20;;;;;;;5.22;100.00;98774.50;5019858;28;20225;-51
2022/01/05 03:19:24;;;;;;;8.63;3.53;;;;;;;5.17;100.00;98785.66;5022841;28;20530;-51
2022/01/05 03:21:50;;;;;;;8.70;3.77;;;;;;;5.21;100.00;98786.47;5022360;28;20238;-52
2022/01/05 03:24:15;;;;;;;5.20;3.43;;;;;;;5.32;100.00;98784.63;5024325;28;20230;-52
2022/01/05 03:26:41;;;;;;;9.83;4.67;;;;;;;5.21;100.00;98794.16;5017716;28;20189;-52
2022/01/05 03:29:06;;;;;;;6.07;3.70;;;;;;;5.15;100.00;98794.22;5021637;28;20621;-51
2022/01/05 03:31:32;;;;;;;6.37;3.63;;;;;;;5.17;100.00;98802.75;5017706;28;20187;-51
2022/01/05 03:33:57;;;;;;;8.13;4.43;;;;;;;5.19;100.00;98812.16;5014423;28;20251;-51
2022/01/05 03:36:22;;;;;;;10.70;5.73;;;;;;;5.28;100.00;98808.63;5023564;28;20219;-51
2022/01/05 03:38:48;;;;;;;9.87;5.40;;;;;;;5.28;100.00;98823.16;5018247;28;20216;-51
2022/01/05 03:41:14;;;;;;;7.57;5.07;;;;;;;5.27;100.00;98829.16;5017659;28;20486;-52
2022/01/05 03:43:39;;;;;;;12.33;5.73;;;;;;;5.29;100.00;98840.25;5024616;28;20195;-51
2022/01/05 03:46:05;;;;;;;12.27;5.97;;;;;;;5.31;100.00;98843.66;5021647;28;20226;-51
2022/01/05 03:48:30;;;;;;;10.57;5.83;;;;;;;5.31;100.00;98857.31;5018553;28;20568;-51
2022/01/05 03:50:55;;;;;;;11.77;6.37;;;;;;;5.32;100.00;98864.16;5016676;28;20197;-52
2022/01/05 03:53:21;;;;;;;12.60;6.50;;;;;;;5.31;100.00;98869.31;5027222;28;20191;-52
2022/01/05 03:55:47;;;;;;;8.77;4.90;;;;;;;5.31;100.00;98882.97;5022130;28;20615;-51
2022/01/05 03:58:13;;;;;;;12.00;6.30;;;;;;;5.33;100.00;98888.94;5014855;28;20902;-52
2022/01/05 04:00:46;;;;;;;8.67;5.70;;;;;;;5.36;100.00;98893.22;5017738;28;20194;-52
2022/01/05 04:03:11;;;;;;;9.60;5.57;;;;;;;5.35;100.00;98912.03;5011937;28;20240;-52
2022/01/05 04:05:37;;;;;;;9.03;5.80;;;;;;;5.36;100.00;98913.72;5019322;28;20200;-53
2022/01/05 04:08:02;;;;;;;11.43;6.53;;;;;;;5.34;100.00;98920.59;5016672;28;20209;-52
2022/01/05 04:10:28;;;;;;;13.33;6.77;;;;;;;5.35;100.00;98924.84;5019214;28;20605;-52
2022/01/05 04:12:53;;;;;;;11.20;6.90;;;;;;;5.34;100.00;98941.13;5027552;28;20681;-52
2022/01/05 04:15:19;;;;;;;16.23;8.43;;;;;;;5.33;100.00;98944.53;5024376;28;20584;-52
2022/01/05 04:17:45;;;;;;;15.10;8.40;;;;;;;5.32;100.00;98963.34;5025983;28;20208;-52
2022/01/05 04:20:12;;;;;;;20.87;9.73;;;;;;;5.27;100.00;98970.22;5026152;28;20193;-52
2022/01/05 04:22:37;;;;;;;15.27;7.87;;;;;;;5.25;100.00;98980.50;5019036;28;20192;-52
2022/01/05 04:25:04;;;;;;;15.50;7.63;;;;;;;5.25;100.00;98988.22;5019693;28;20555;-52
2022/01/05 04:27:29;;;;;;;18.80;8.63;;;;;;;5.21;100.00;99004.47;5015085;28;20688;-51
2022/01/05 04:29:54;;;;;;;13.10;7.43;;;;;;;5.19;100.00;99003.63;5017123;28;20197;-52
2022/01/05 04:32:20;;;;;;;13.50;7.47;;;;;;;5.19;100.00;99019.03;5018608;28;20196;-51
2022/01/05 04:34:45;;;;;;;13.73;6.47;;;;;;;5.18;100.00;99012.19;5021656;28;20207;-52
2022/01/05 04:37:11;;;;;;;9.53;5.27;;;;;;;5.11;100.00;99031.91;5013752;28;20626;-52
2022/01/05 04:39:36;;;;;;;7.97;5.07;;;;;;;5.11;100.00;99026.78;5019483;28;20200;-52
2022/01/05 04:42:03;;;;;;;7.33;4.10;;;;;;;5.07;100.00;99035.34;5019384;28;20665;-52
2022/01/05 04:44:29;;;;;;;7.67;4.40;;;;;;;5.04;100.00;99032.81;5013672;28;20720;-52
2022/01/05 04:46:54;;;;;;;6.47;3.40;;;;;;;5.00;100.00;99044.78;5015918;28;20219;-52
2022/01/05 04:49:20;;;;;;;6.20;3.07;;;;;;;4.97;100.00;99051.66;5017833;28;20217;-52
2022/01/05 04:51:45;;;;;;;5.93;3.20;;;;;;;4.88;100.00;99052.56;5017142;28;20189;-52
2022/01/05 04:54:11;;;;;;;3.90;2.57;;;;;;;4.82;100.00;99061.16;5016795;28;20646;-52
2022/01/05 04:56:36;;;;;;;4.60;2.53;;;;;;;4.71;100.00;99056.06;5019639;28;20209;-52
2022/01/05 04:59:02;;;;;;;5.53;2.50;;;;;;;4.58;100.00;99067.22;5015525;28;20189;-52
2022/01/05 05:01:28;;;;;;;3.87;2.20;;;;;;;4.51;100.00;99076.66;5014042;28;20220;-52
2022/01/05 05:03:53;;;;;;;4.10;2.30;;;;;;;4.49;100.00;99086.06;5015165;28;20622;-52
2022/01/05 05:06:18;;;;;;;3.93;2.03;;;;;;;4.45;100.00;99102.31;5015077;28;20202;-52
2022/01/05 05:08:44;;;;;;;3.63;2.30;;;;;;;4.45;100.00;99107.44;5014432;28;20313;-51
2022/01/05 05:11:09;;;;;;;3.70;2.17;;;;;;;4.52;100.00;99115.97;5014667;28;20196;-52
2022/01/05 05:13:34;;;;;;;3.50;2.50;;;;;;;4.36;100.00;99125.38;5014233;28;20581;-52
2022/01/05 05:16:00;;;;;;;4.77;2.50;;;;;;;4.32;100.00;99126.22;5012079;28;20252;-51
2022/01/05 05:18:25;;;;;;;4.33;2.37;;;;;;;4.25;100.00;99131.38;5016218;28;20226;-51
2022/01/05 05:20:50;;;;;;;3.03;1.97;;;;;;;4.22;100.00;99135.66;5020035;28;20201;-51
2022/01/05 05:23:17;;;;;;;4.47;2.30;;;;;;;4.24;100.00;99139.94;5020234;28;20279;-50
2022/01/05 05:25:42;;;;;;;2.37;1.97;;;;;;;4.29;100.00;99144.19;5022073;28;20223;-51
2022/01/05 05:28:07;;;;;;;3.37;2.03;;;;;;;4.31;100.00;99158.69;5021970;28;20596;-51
2022/01/05 05:30:34;;;;;;;3.67;2.20;;;;;;;4.31;100.00;99170.66;5009651;28;20206;-51
2022/01/05 05:33:00;;;;;;;3.30;2.13;;;;;;;4.26;100.00;99176.63;5011056;28;20220;-51
2022/01/05 05:35:27;;;;;;;3.57;1.90;;;;;;;4.27;100.00;99177.47;5011815;28;20916;-51
2022/01/05 05:37:53;;;;;;;2.63;1.93;;;;;;;4.25;100.00;99184.31;5019381;28;20766;-51
2022/01/05 05:40:19;;;;;;;2.60;1.83;;;;;;;4.26;100.00;99186.88;5027152;28;20203;-51
2022/01/05 05:42:44;;;;;;;3.13;2.13;;;;;;;4.24;100.00;99200.53;5033961;28;20569;-51
2022/01/05 05:45:10;;;;;;;3.40;2.20;;;;;;;4.20;100.00;99201.41;5022981;28;20193;-50
2022/01/05 05:47:35;;;;;;;3.73;3.07;;;;;;;4.14;100.00;99203.94;5014397;28;20208;-54
2022/01/05 05:50:00;;;;;;;5.97;3.50;;;;;;;4.12;100.00;99217.59;5017005;28;20746;-51
2022/01/05 05:52:26;;;;;;;4.33;3.40;;;;;;;4.13;100.00;99226.16;5013703;28;20207;-52
2022/01/05 05:54:52;;;;;;;4.57;3.70;;;;;;;4.11;100.00;99230.41;5017790;28;20211;-51
2022/01/05 05:57:18;;;;;;;5.83;3.90;;;;;;;4.12;100.00;99237.25;5018054;28;20738;-53
2022/01/05 05:59:43;;;;;;;7.57;4.30;;;;;;;4.08;100.00;99244.06;5016027;28;20810;-51
2022/01/05 06:02:09;;;;;;;6.03;4.60;;;;;;;4.08;100.00;99256.00;5010217;28;20506;-52
2022/01/05 06:04:34;;;;;;;5.63;4.20;;;;;;;4.08;100.00;99256.00;5012025;28;20244;-51
2022/01/05 06:06:59;;;;;;;6.23;4.43;;;;;;;4.07;100.00;99261.97;5013056;28;20219;-51
2022/01/05 06:09:25;;;;;;;6.37;4.60;;;;;;;4.03;100.00;99271.38;5018987;28;20200;-51
2022/01/05 06:11:50;;;;;;;6.53;4.60;;;;;;;3.95;100.00;99275.63;5016124;28;20187;-51
2022/01/05 06:14:15;;;;;;;6.57;4.30;;;;;;;3.83;100.00;99280.72;5013415;28;20262;-51
2022/01/05 06:16:43;;;;;;;9.20;4.60;;;;;;;3.79;100.00;99287.53;5020939;28;20690;-51
2022/01/05 06:19:08;;;;;;;6.33;3.90;;;;;;;3.72;100.00;99298.59;5024273;28;20183;-51
2022/01/05 06:21:34;;;;;;;8.03;3.73;;;;;;;3.67;100.00;99301.16;5017310;28;20195;-53
2022/01/05 06:23:59;;;;;;;7.17;3.70;;;;;;;3.65;100.00;99323.31;5015872;28;20609;-50
2022/01/05 06:26:25;;;;;;;5.73;4.20;;;;;;;3.62;100.00;99319.03;5013475;28;20263;-51
2022/01/05 06:28:50;;;;;;;9.03;5.03;;;;;;;3.60;100.00;99330.13;5013643;28;20207;-51
2022/01/05 06:31:16;;;;;;;8.57;5.57;;;;;;;3.61;100.00;99331.84;5025167;28;20709;-50
2022/01/05 06:33:41;;;;;;;10.93;6.27;;;;;;;3.59;100.00;99339.50;5011536;28;20191;-51
2022/01/05 06:36:07;;;;;;;10.27;6.50;;;;;;;3.48;100.00;99348.84;5008920;28;20207;-52
2022/01/05 06:38:32;;;;;;;9.50;6.07;;;;;;;3.45;100.00;99353.94;5011954;28;20208;-51
2022/01/05 06:40:58;;;;;;;12.10;6.90;;;;;;;3.47;100.00;99352.25;5012219;28;20192;-51
2022/01/05 06:43:23;;;;;;;10.20;6.80;;;;;;;3.40;100.00;99358.19;5012168;28;20269;-52
2022/01/05 06:45:49;;;;;;;9.90;6.03;;;;;;;3.33;100.00;99377.72;5019770;28;20219;-50
2022/01/05 06:48:18;;;;;;;12.63;7.00;;;;;;;3.31;100.00;99382.84;5018154;28;20216;-51
2022/01/05 06:50:43;;;;;;;11.47;6.97;;;;;;;3.23;100.00;99401.53;5010276;28;20230;-51
2022/01/05 06:53:08;;;;;;;9.33;6.30;;;;;;;3.25;100.00;99399.84;5012400;28;20218;-51
2022/01/05 06:55:34;;;;;;;10.17;6.70;;;;;;;3.34;100.00;99413.56;5017669;28;20207;-53
2022/01/05 06:58:00;;;;;;;8.30;6.30;;;;;;;3.40;100.00;99417.84;5014538;28;20234;-50
2022/01/05 07:00:26;;;;;;;12.93;8.60;;;;;;;3.44;100.00;99417.03;5010219;28;20249;-51
2022/01/05 07:02:52;;;;;;;11.30;7.97;;;;;;;3.44;100.00;99408.50;5011768;28;20204;-51
2022/01/05 07:05:17;;;;;;;13.20;8.07;;;;;;;3.41;100.00;99418.69;5012837;28;20200;-51
2022/01/05 07:07:43;;;;;;;13.20;8.50;;;;;;;3.39;100.00;99426.38;5019972;28;20706;-51
2022/01/05 07:10:09;;;;;;;11.97;8.37;;;;;;;3.34;100.00;99417.81;5024938;28;20245;-51
2022/01/05 07:12:36;;;;;;;14.50;8.83;;;;;;;3.32;100.00;99433.16;5026917;28;20717;-51
2022/01/05 07:15:03;;;;;;;14.67;9.10;;;;;;;3.31;100.00;99436.56;5028375;28;20200;-51
2022/01/05 07:17:29;;;;;;;12.20;8.17;;;;;;;3.27;100.00;99447.59;5029660;28;20200;-51
2022/01/05 07:19:55;;;;;;;11.40;8.27;;;;;;;3.24;100.00;99450.16;5020934;28;20660;-51
2022/01/05 07:22:20;;;;;;;13.17;7.63;;;;;;;3.20;100.00;99459.47;5019881;28;20572;-51
2022/01/05 07:24:45;;;;;;;11.93;7.53;;;;;;;3.19;100.00;99475.66;5017909;28;20184;-51
2022/01/05 07:27:11;;;;;;;16.33;8.50;;;;;;;3.20;100.00;99479.94;5015293;28;20203;-51
2022/01/05 07:29:36;;;;;;;13.10;7.67;;;;;;;3.24;100.00;99487.63;5015997;28;20194;-51
2022/01/05 07:32:02;;;;;;;11.80;8.83;;;;;;;3.25;100.00;99497.03;5014160;28;20202;-51
2022/01/05 07:34:28;;;;;;;11.37;7.67;;;;;;;3.25;100.00;99502.13;5014140;28;20195;-51
2022/01/05 07:36:53;;;;;;;15.00;8.83;;;;;;;3.29;100.00;99507.28;5034477;28;20524;-51
2022/01/05 07:39:19;;;;;;;16.50;9.60;;;;;;;3.27;100.00;99506.41;5023972;28;20198;-51
2022/01/05 07:41:44;;;;;;;14.57;9.90;;;;;;;3.23;100.00;99519.16;5026653;28;20297;-51
2022/01/05 07:44:09;;;;;;;17.33;11.90;;;;;;;3.19;100.00;99520.84;5018928;28;20199;-51
2022/01/05 07:46:35;;;;;;;37.23;24.30;;;;;;;3.15;100.00;99522.53;5020634;28;20274;-51
2022/01/05 07:49:02;;;;;;;23.17;16.63;;;;;;;3.08;100.00;99522.47;5026978;28;20192;-50
2022/01/05 07:51:29;;;;;;;27.13;16.40;;;;;;;3.00;100.00;99522.38;5024994;28;20192;-51
2022/01/05 07:53:54;;;;;;;18.87;13.13;;;;;;;2.95;100.00;99530.00;5021011;28;20191;-51
2022/01/05 07:56:19;;;;;;;22.10;13.43;;;;;;;2.95;100.00;99542.78;5025690;28;20203;-51
2022/01/05 07:58:45;;;;;;;18.37;12.10;;;;;;;3.00;100.00;99533.47;5028618;28;20203;-50
2022/01/05 08:01:11;;;;;;;20.07;12.30;;;;;;;3.11;100.00;99542.91;5024178;28;20194;-51
2022/01/05 08:03:37;;;;;;;18.63;12.30;;;;;;;3.17;100.00;99556.66;5028111;28;20183;-51
2022/01/05 08:06:04;;;;;;;31.80;21.53;;;;;;;3.21;100.00;99544.75;5019477;28;20201;-51
2022/01/05 08:08:29;;;;;;;37.27;23.17;;;;;;;3.28;100.00;99550.75;5029423;28;20281;-50
2022/01/05 08:10:55;;;;;;;33.20;20.00;;;;;;;3.33;100.00;99556.75;5023865;28;20600;-51
2022/01/05 08:13:24;;;;;;;28.77;18.93;;;;;;;3.32;100.00;99566.16;5024685;28;20890;-51
2022/01/05 08:15:53;;;;;;;40.63;23.60;;;;;;;3.31;100.00;99564.44;5031306;28;20215;-51
2022/01/05 08:18:18;;;;;;;50.97;33.00;;;;;;;3.32;100.00;99573.81;5030086;28;20234;-51
2022/01/05 08:20:46;;;;;;;55.07;36.87;;;;;;;3.39;100.00;99576.44;5018053;28;20247;-51
2022/01/05 08:23:19;;;;;;;51.93;37.60;;;;;;;3.47;100.00;99579.91;5018904;28;20275;-51
2022/01/05 08:25:45;;;;;;;40.63;26.83;;;;;;;3.55;100.00;99565.50;5028400;28;20191;-51
2022/01/05 08:28:11;;;;;;;37.27;25.10;;;;;;;3.54;100.00;99580.81;5027812;28;20330;-50
2022/01/05 08:30:38;;;;;;;35.20;26.20;;;;;;;3.57;100.00;99591.91;5027035;28;20191;-50
2022/01/05 08:33:04;;;;;;;38.70;28.17;;;;;;;3.61;100.00;99597.94;5023594;28;20560;-50
2022/01/05 08:35:30;;;;;;;35.70;28.13;;;;;;;3.65;100.00;99590.31;5027518;28;20507;-52
2022/01/05 08:37:56;;;;;;;64.47;40.40;;;;;;;3.61;100.00;99591.09;5028027;28;20223;-50
2022/01/05 08:40:24;;;;;;;52.10;36.93;;;;;;;3.50;100.00;99598.69;5024069;28;20206;-51
2022/01/05 08:42:51;;;;;;;55.03;37.53;;;;;;;3.50;100.00;99602.97;5023594;28;20196;-53
2022/01/05 08:45:17;;;;;;;51.57;34.77;;;;;;;3.49;100.00;99614.03;5035653;28;20661;-50
2022/01/05 08:47:47;;;;;;;44.97;29.13;;;;;;;3.46;100.00;99606.31;5026426;28;20215;-50
2022/01/05 08:50:17;;;;;;;63.57;40.63;;;;;;;3.37;100.00;99609.66;5025546;28;20318;-51
2022/01/05 08:52:43;;;;;;;40.90;27.80;;;;;;;3.30;100.00;99607.91;5026769;28;20214;-51
2022/01/05 08:55:09;;;;;;;39.27;28.07;;;;;;;3.16;100.00;99618.84;5026858;28;20222;-51
2022/01/05 08:57:35;;;;;;;36.67;26.53;;;;;;;3.04;100.00;99616.13;5016837;28;20235;-50
2022/01/05 09:00:01;;;;;;;37.30;26.17;;;;;;;3.04;100.00;99627.25;5026086;28;20281;-50
2022/01/05 09:02:28;;;;;;;27.43;20.30;;;;;;;3.15;100.00;99629.03;5019384;28;20226;-52
2022/01/05 09:04:53;;;;;;;27.03;17.13;;;;;;;3.28;100.00;99628.31;5016873;28;20211;-51
2022/01/05 09:07:19;;;;;;;25.53;17.33;;;;;;;3.46;100.00;99634.47;5023606;28;20215;-50
2022/01/05 09:09:44;;;;;;;21.93;12.50;;;;;;;3.55;100.00;99629.47;5020634;28;20541;-50
2022/01/05 09:12:11;;;;;;;18.60;11.40;;;;;;;3.57;100.00;99644.81;5025025;28;20196;-52
2022/01/05 09:14:39;;;;;;;15.83;10.40;;;;;;;3.50;100.00;99649.84;5026410;28;20666;-51
2022/01/05 09:17:04;;;;;;;18.63;10.30;;;;;;;3.41;100.00;99657.44;5024831;28;20226;-52
2022/01/05 09:19:29;;;;;;;19.57;10.20;;;;;;;3.34;100.00;99653.97;5018776;28;20659;-52
2022/01/05 09:21:55;;;;;;;15.73;9.87;;;;;;;3.22;100.00;99658.09;5026987;28;20306;-50
2022/01/05 09:24:20;;;;;;;14.47;8.80;;;;;;;3.24;100.00;99664.97;5015631;28;20199;-50
2022/01/05 09:26:46;;;;;;;17.60;9.60;;;;;;;3.22;100.00;99670.88;5021821;28;20184;-52
2022/01/05 09:29:11;;;;;;;15.47;9.27;;;;;;;3.14;100.00;99664.00;5021239;28;20195;-50
2022/01/05 09:31:37;;;;;;;14.57;8.70;;;;;;;3.08;100.00;99676.69;5012749;28;20202;-50
2022/01/05 09:34:02;;;;;;;13.80;8.10;;;;;;;2.98;100.00;99668.06;5016303;28;20640;-50
2022/01/05 09:36:35;;;;;;;16.37;7.33;;;;;;;2.99;100.00;99674.03;5015671;28;20268;-51
2022/01/05 09:42:05;;;;;;;16.83;7.80;;;;;;;3.08;100.00;99686.94;5014350;28;20206;-50
2022/01/05 09:44:41;;;;;;;15.27;8.13;;;;;;;3.18;100.00;99682.78;5015069;28;20258;-49
2022/01/05 09:47:23;;;;;;;15.07;7.87;;;;;;;3.20;100.00;99681.09;5025681;28;20297;-52
2022/01/05 09:49:57;;;;;;;16.93;6.53;;;;;;;3.17;100.00;99686.19;5014242;28;20664;-50
2022/01/05 09:52:24;;;;;;;17.17;6.93;;;;;;;3.24;100.00;99689.66;5014486;28;20238;-52
2022/01/05 09:54:50;;;;;;;12.73;6.80;;;;;;;3.26;100.00;99696.50;5018532;28;20207;-50
2022/01/05 09:57:16;;;;;;;14.40;7.37;;;;;;;3.28;100.00;99693.97;5016769;28;20211;-50
2022/01/05 09:59:43;;;;;;;10.60;6.83;;;;;;;3.30;100.00;99700.81;5018953;28;20644;-50
2022/01/05 10:02:09;;;;;;;15.40;7.23;;;;;;;3.33;100.00;99699.97;5017901;28;20187;-50
2022/01/05 10:04:38;;;;;;;14.23;6.90;;;;;;;3.32;100.00;99701.69;5014337;28;20563;-50
2022/01/05 10:07:04;;;;;;;13.00;7.23;;;;;;;3.39;100.00;99701.78;5015925;28;20215;-50
2022/01/05 10:09:29;;;;;;;20.03;9.93;;;;;;;3.49;100.00;99693.34;5016977;28;20204;-50
2022/01/05 10:11:55;;;;;;;17.47;9.37;;;;;;;3.59;100.00;99704.53;5011009;28;20219;-50
2022/01/05 10:14:20;;;;;;;20.17;10.00;;;;;;;3.90;100.00;99703.13;5019599;28;20200;-50
2022/01/05 10:17:07;;;;;;;20.77;10.33;;;;;;;4.07;100.00;99710.97;5013471;28;20373;-51
2022/01/05 10:19:35;;;;;;;19.17;9.77;;;;;;;4.34;100.00;99706.00;5019431;28;20191;-50
2022/01/05 10:22:01;;;;;;;26.17;14.13;;;;;;;4.34;100.00;99709.44;5013809;28;20192;-50
2022/01/05 10:24:46;;;;;;;27.57;13.67;;;;;;;4.57;100.00;99708.72;5021020;28;20187;-50
2022/01/05 10:27:16;;;;;;;24.13;11.93;;;;;;;4.78;100.00;99710.56;5020285;28;20211;-51
2022/01/05 10:30:00;;;;;;;19.83;10.67;;;;;;;4.84;100.00;99710.59;5017593;28;20620;-51
2022/01/05 10:32:29;;;;;;;20.53;11.17;;;;;;;4.88;100.00;99712.34;5028148;28;20199;-52
2022/01/05 10:35:14;;;;;;;16.53;9.93;;;;;;;5.01;100.00;99717.50;5022521;28;20299;-52
2022/01/05 10:37:42;;;;;;;15.07;8.20;;;;;;;5.08;100.00;99723.53;5021022;28;20833;-53
2022/01/05 10:40:25;;;;;;;17.50;8.47;;;;;;;5.09;100.00;99725.25;5033772;28;20204;-50
2022/01/05 10:42:53;;;;;;;21.70;7.57;;;;;;;4.92;100.00;99732.84;5042019;28;20191;-52
2022/01/05 10:45:37;;;;;;;16.93;6.97;;;;;;;4.87;100.00;99726.00;5022776;28;20214;-51
2022/01/05 10:48:07;;;;;;;17.10;6.97;;;;;;;4.92;100.00;99730.28;5019521;28;20676;-52
2022/01/05 10:50:33;;;;;;;14.90;6.87;;;;;;;5.12;100.00;99738.94;5021231;28;20193;-49
2022/01/05 10:52:59;;;;;;;15.50;7.70;;;;;;;5.14;100.00;99739.78;5021148;28;20490;-53
2022/01/05 10:55:28;;;;;;;9.93;6.20;;;;;;;5.17;100.00;99733.81;5020419;28;20219;-50
2022/01/05 10:58:15;;;;;;;17.13;6.80;;;;;;;5.17;100.00;99734.69;5014624;28;20292;-50
2022/01/05 11:00:42;;;;;;;14.20;6.27;;;;;;;5.27;100.00;99744.97;5020476;28;20189;-50
2022/01/05 11:03:22;;;;;;;10.87;6.30;;;;;;;5.38;100.00;99742.47;5023070;28;20661;-50
2022/01/05 11:06:17;;;;;;;15.33;6.07;;;;;;;5.51;100.00;99741.63;5017382;28;20235;-50
2022/01/05 11:08:59;;;;;;;16.53;5.37;;;;;;;5.58;100.00;99747.66;5023039;28;20239;-49
2022/01/05 11:11:36;;;;;;;13.70;5.53;;;;;;;5.56;100.00;99739.97;5016212;28;20191;-50
2022/01/05 11:14:08;;;;;;;12.40;5.33;;;;;;;5.41;100.00;99745.03;5017054;28;20898;-50
2022/01/05 11:16:34;;;;;;;10.97;4.80;;;;;;;5.22;100.00;99742.41;5019415;28;20218;-50
2022/01/05 11:19:21;;;;;;;8.03;4.53;;;;;;;4.98;100.00;99749.16;5018233;28;20212;-50
2022/01/05 11:21:58;;;;;;;11.73;4.40;;;;;;;4.97;100.00;99754.25;5015234;28;20180;-50
2022/01/05 11:24:24;;;;;;;9.33;4.47;;;;;;;5.06;100.00;99756.00;5018844;28;20188;-50
2022/01/05 11:26:50;;;;;;;10.77;4.87;;;;;;;5.11;100.00;99757.72;5017591;28;20198;-52
2022/01/05 11:29:16;;;;;;;10.00;4.60;;;;;;;5.10;100.00;99750.03;5015449;28;20201;-51
2022/01/05 11:31:44;;;;;;;11.90;4.93;;;;;;;5.07;100.00;99753.44;5023138;28;20196;-49
2022/01/05 11:34:10;;;;;;;9.53;3.97;;;;;;;5.11;100.00;99752.59;5021247;28;20193;-50